Time;durP1;ratioP1;P1;durP2;ratioP2;P2;SDS_P1;SDS_P2;PMS_P1;PMS_P2;Temp;Humidity;BMP_temperature;BMP_pressure;BME280_temperature;BME280_humidity;BME280_pressure;Samples;Min_cycle;Max_cycle;Signal;HPM_P1;HPM_P2
2021/07/21 00:01:44;;;;;;;10.37;8.87;;;18.10;90.40;;;;;;5099146;28;20270;-36
2021/07/21 00:04:10;;;;;;;11.70;8.63;;;18.10;90.60;;;;;;5099702;28;20180;-36
2021/07/21 00:06:35;;;;;;;7.90;7.20;;;18.10;90.70;;;;;;5099452;28;20484;-38
2021/07/21 00:09:01;;;;;;;10.80;9.33;;;18.10;90.90;;;;;;5081401;28;20215;-37
2021/07/21 00:14:20;;;;;;;9.80;8.80;;;18.00;90.90;;;;;;5098456;28;20199;-36
2021/07/21 00:16:59;;;;;;;12.33;8.77;;;18.00;90.90;;;;;;5098577;28;20910;-36
2021/07/21 00:22:11;;;;;;;9.53;8.10;;;17.90;91.10;;;;;;5098879;28;20426;-36
2021/07/21 00:24:37;;;;;;;10.80;9.30;;;17.90;91.40;;;;;;5098596;28;20471;-36
2021/07/21 00:27:02;;;;;;;8.97;7.93;;;17.90;91.50;;;;;;5099574;28;20450;-35
2021/07/21 00:29:28;;;;;;;9.33;8.37;;;17.90;91.50;;;;;;5098620;28;20263;-36
2021/07/21 00:31:54;;;;;;;9.90;8.90;;;17.90;91.60;;;;;;5099419;28;20480;-36
2021/07/21 00:34:19;;;;;;;9.57;8.60;;;17.90;91.60;;;;;;5099505;28;20177;-36
2021/07/21 00:36:45;;;;;;;10.30;9.10;;;17.90;91.70;;;;;;5098354;28;20322;-36
2021/07/21 00:39:11;;;;;;;11.57;7.57;;;17.90;91.60;;;;;;5098697;28;20501;-37
2021/07/21 00:41:36;;;;;;;10.90;8.67;;;17.90;91.80;;;;;;5098819;28;20208;-36
2021/07/21 00:44:02;;;;;;;10.33;8.83;;;17.90;91.70;;;;;;5098185;28;20176;-38
2021/07/21 00:46:28;;;;;;;9.23;8.20;;;17.80;91.60;;;;;;5098940;28;20207;-36
2021/07/21 00:48:53;;;;;;;11.77;9.43;;;17.80;91.80;;;;;;5081332;28;20410;-36
2021/07/21 00:51:19;;;;;;;9.63;8.67;;;17.80;91.90;;;;;;5097665;28;20195;-37
2021/07/21 00:53:46;;;;;;;9.07;8.17;;;17.80;91.90;;;;;;5098693;28;20273;-36
2021/07/21 00:56:13;;;;;;;11.43;8.90;;;17.80;91.80;;;;;;5098486;28;20727;-37
2021/07/21 00:58:38;;;;;;;9.87;8.87;;;17.80;92.00;;;;;;5098211;28;20476;-37
2021/07/21 01:01:04;;;;;;;11.30;8.60;;;17.70;92.10;;;;;;5080314;28;20438;-36
2021/07/21 01:03:30;;;;;;;14.27;9.30;;;17.70;92.30;;;;;;5098191;28;20176;-35
2021/07/21 01:06:01;;;;;;;10.00;9.00;;;17.70;92.10;;;;;;5079919;28;20234;-37
2021/07/21 01:08:27;;;;;;;10.10;8.97;;;17.70;92.20;;;;;;5097714;28;20448;-38
2021/07/21 01:11:07;;;;;;;11.20;9.33;;;17.60;92.10;;;;;;5097948;28;20442;-36
2021/07/21 01:13:40;;;;;;;10.90;9.00;;;17.50;92.80;;;;;;5098179;28;20892;-35
2021/07/21 01:16:11;;;;;;;10.30;9.30;;;17.40;93.00;;;;;;5079623;28;20498;-36
2021/07/21 01:18:43;;;;;;;12.73;9.90;;;17.40;93.10;;;;;;5079804;28;20429;-36
2021/07/21 01:21:15;;;;;;;10.77;9.10;;;17.40;93.20;;;;;;5080071;28;20456;-36
2021/07/21 01:24:17;;;;;;;10.70;9.43;;;17.40;93.10;;;;;;5096689;28;20520;-36
2021/07/21 01:26:49;;;;;;;11.37;8.90;;;17.40;93.20;;;;;;5079670;28;20459;-36
2021/07/21 01:29:20;;;;;;;11.83;9.73;;;17.40;93.30;;;;;;5080015;28;20414;-35
2021/07/21 01:31:47;;;;;;;10.90;9.10;;;17.40;93.30;;;;;;5080125;28;20457;-36
2021/07/21 01:34:14;;;;;;;11.03;9.57;;;17.40;93.30;;;;;;5097377;28;20446;-36
2021/07/21 01:36:43;;;;;;;12.90;9.57;;;17.40;93.30;;;;;;5079391;28;20478;-36
2021/07/21 01:42:31;;;;;;;12.80;9.03;;;17.40;93.50;;;;;;5096926;28;20410;-37
2021/07/21 01:44:59;;;;;;;10.63;9.43;;;17.40;93.50;;;;;;5097609;28;20832;-36
2021/07/21 01:47:25;;;;;;;11.13;10.03;;;17.40;93.50;;;;;;5080011;28;20446;-36
2021/07/21 01:49:52;;;;;;;10.23;8.70;;;17.40;93.60;;;;;;5079333;28;20437;-36
2021/07/21 01:52:23;;;;;;;11.50;9.77;;;17.40;93.60;;;;;;5079526;28;20460;-36
2021/07/21 01:54:50;;;;;;;9.83;8.67;;;17.40;93.60;;;;;;5079136;28;20528;-36
2021/07/21 01:57:16;;;;;;;9.40;8.43;;;17.40;93.60;;;;;;5079385;28;20470;-36
2021/07/21 01:59:46;;;;;;;11.00;9.80;;;17.40;93.60;;;;;;5096148;28;20418;-35
2021/07/21 02:02:12;;;;;;;8.73;7.87;;;17.40;93.60;;;;;;5096927;28;20168;-35
2021/07/21 02:04:39;;;;;;;10.77;9.07;;;17.30;93.60;;;;;;5082238;28;20424;-36
2021/07/21 02:07:10;;;;;;;10.20;9.20;;;17.30;93.70;;;;;;5082790;28;20699;-36
2021/07/21 02:09:38;;;;;;;9.00;8.10;;;17.30;93.80;;;;;;5082157;28;20463;-38
2021/07/21 02:12:04;;;;;;;10.57;9.20;;;17.30;93.80;;;;;;5080532;28;20496;-37
2021/07/21 02:14:30;;;;;;;10.17;8.90;;;17.30;93.80;;;;;;5097960;28;20888;-36
2021/07/21 02:16:56;;;;;;;10.60;9.50;;;17.30;93.90;;;;;;5076226;28;20527;-37
2021/07/21 02:19:22;;;;;;;10.97;9.83;;;17.30;93.80;;;;;;5076563;28;20464;-36
2021/07/21 02:21:48;;;;;;;11.20;8.87;;;17.30;93.80;;;;;;5060051;28;20699;-36
2021/07/21 02:24:13;;;;;;;10.53;9.53;;;17.30;94.00;;;;;;5075392;28;20181;-36
2021/07/21 02:26:40;;;;;;;11.20;9.17;;;17.30;94.40;;;;;;5080137;28;20418;-37
2021/07/21 02:29:06;;;;;;;10.23;9.10;;;17.30;94.10;;;;;;5080227;28;20188;-36
2021/07/21 02:31:45;;;;;;;10.07;9.03;;;17.30;94.20;;;;;;5079554;28;20443;-36
2021/07/21 02:34:10;;;;;;;11.13;9.53;;;17.30;94.20;;;;;;5080363;28;20450;-38
2021/07/21 02:36:36;;;;;;;9.73;8.30;;;17.30;94.20;;;;;;5079100;28;20611;-35
2021/07/21 02:39:05;;;;;;;11.83;9.60;;;17.20;94.10;;;;;;5077881;28;20247;-36
2021/07/21 02:41:31;;;;;;;10.47;9.30;;;17.20;94.20;;;;;;5080163;28;20174;-36
2021/07/21 02:43:56;;;;;;;13.57;9.67;;;17.20;94.30;;;;;;5080356;28;20430;-36
2021/07/21 02:46:22;;;;;;;11.03;9.13;;;17.20;94.30;;;;;;5079249;28;20837;-36
2021/07/21 02:48:49;;;;;;;10.73;9.63;;;17.20;94.40;;;;;;5079022;28;20180;-36
2021/07/21 02:51:26;;;;;;;10.93;9.53;;;17.20;94.50;;;;;;5079847;28;20178;-36
2021/07/21 02:54:21;;;;;;;10.63;8.60;;;17.20;94.50;;;;;;5079143;28;20535;-36
2021/07/21 02:56:52;;;;;;;10.83;9.57;;;17.20;94.60;;;;;;5074490;28;20750;-36
2021/07/21 02:59:19;;;;;;;10.97;9.00;;;17.10;94.50;;;;;;5075944;28;20443;-36
2021/07/21 03:01:48;;;;;;;13.43;10.57;;;17.10;94.50;;;;;;5076788;28;20822;-36
2021/07/21 03:04:19;;;;;;;11.00;9.87;;;17.10;94.60;;;;;;5075436;28;20427;-35
2021/07/21 03:06:45;;;;;;;12.10;9.33;;;17.10;94.70;;;;;;5077232;28;20537;-35
2021/07/21 03:09:12;;;;;;;11.83;8.80;;;17.10;94.80;;;;;;5076250;28;20456;-36
2021/07/21 03:11:38;;;;;;;11.73;10.47;;;17.10;94.90;;;;;;5078178;28;20838;-35
2021/07/21 03:14:05;;;;;;;11.77;9.77;;;17.10;94.90;;;;;;5079235;28;20730;-36
2021/07/21 03:16:32;;;;;;;10.17;9.07;;;17.10;94.90;;;;;;5078541;28;20890;-36
2021/07/21 03:19:01;;;;;;;12.70;10.80;;;17.00;94.90;;;;;;5078640;28;20431;-36
2021/07/21 03:21:28;;;;;;;10.43;9.33;;;17.00;94.90;;;;;;5078807;28;20430;-36
2021/07/21 03:23:55;;;;;;;10.47;9.37;;;17.00;95.00;;;;;;5077797;28;20427;-36
2021/07/21 03:26:20;;;;;;;11.80;10.70;;;17.00;95.00;;;;;;5078073;28;20480;-36
2021/07/21 03:28:48;;;;;;;11.23;10.13;;;17.00;95.00;;;;;;5078445;28;20438;-35
2021/07/21 03:31:15;;;;;;;9.73;8.63;;;17.00;95.00;;;;;;5078566;28;20203;-37
2021/07/21 03:33:44;;;;;;;12.47;9.80;;;17.00;95.10;;;;;;5078164;28;20442;-36
2021/07/21 03:36:10;;;;;;;11.90;9.93;;;16.90;95.10;;;;;;5079607;28;20459;-35
2021/07/21 03:38:37;;;;;;;10.40;9.30;;;16.90;95.10;;;;;;5077286;28;20443;-36
2021/07/21 03:41:03;;;;;;;10.97;9.87;;;16.90;95.10;;;;;;5079396;28;20799;-36
2021/07/21 03:43:30;;;;;;;10.07;8.63;;;16.90;95.10;;;;;;5078040;28;20663;-36
2021/07/21 03:45:58;;;;;;;11.23;9.53;;;16.90;95.10;;;;;;5077889;28;20188;-36
2021/07/21 03:48:25;;;;;;;11.37;10.17;;;16.90;95.20;;;;;;5078713;28;20431;-35
2021/07/21 03:50:53;;;;;;;10.93;9.43;;;16.90;95.20;;;;;;5076454;28;20427;-35
2021/07/21 03:53:19;;;;;;;11.80;10.60;;;16.90;95.20;;;;;;5076231;28;20530;-36
2021/07/21 03:55:45;;;;;;;12.83;9.10;;;16.80;95.20;;;;;;5078395;28;20423;-36
2021/07/21 03:58:12;;;;;;;11.53;9.73;;;16.80;95.20;;;;;;5078346;28;20435;-36
2021/07/21 04:00:38;;;;;;;10.90;9.20;;;16.80;95.20;;;;;;5077881;28;20252;-36
2021/07/21 04:03:05;;;;;;;11.60;10.27;;;16.80;95.30;;;;;;5077523;28;20422;-36
2021/07/21 04:05:31;;;;;;;10.23;9.23;;;16.90;95.30;;;;;;5078759;28;20197;-35
2021/07/21 04:07:57;;;;;;;11.23;10.13;;;16.90;95.30;;;;;;5078302;28;20433;-36
2021/07/21 04:10:24;;;;;;;11.13;9.87;;;16.90;95.30;;;;;;5077863;28;20407;-35
2021/07/21 04:12:52;;;;;;;11.07;9.07;;;16.90;95.30;;;;;;5077116;28;20916;-35
2021/07/21 04:15:23;;;;;;;12.33;10.77;;;16.90;95.10;;;;;;5079091;28;20761;-36
2021/07/21 04:17:51;;;;;;;9.90;8.90;;;16.90;95.10;;;;;;5098110;28;20753;-36
2021/07/21 04:20:17;;;;;;;12.53;9.50;;;16.90;95.10;;;;;;5080120;28;20791;-38
2021/07/21 04:22:45;;;;;;;11.50;10.30;;;17.00;95.20;;;;;;5097798;28;20427;-36
2021/07/21 04:25:13;;;;;;;12.70;10.33;;;16.90;95.20;;;;;;5095097;28;20495;-37
2021/07/21 04:27:41;;;;;;;12.07;9.73;;;17.00;95.20;;;;;;5095823;28;20850;-36
2021/07/21 04:30:08;;;;;;;12.50;10.53;;;17.00;95.10;;;;;;5076709;28;20425;-36
2021/07/21 04:32:35;;;;;;;13.37;9.80;;;17.10;95.10;;;;;;5059152;28;20491;-36
2021/07/21 04:35:03;;;;;;;11.20;10.00;;;17.10;95.00;;;;;;5076226;28;20459;-35
2021/07/21 04:37:28;;;;;;;11.27;10.07;;;17.20;95.00;;;;;;5094098;28;20465;-35
2021/07/21 04:39:55;;;;;;;10.77;9.73;;;17.20;94.80;;;;;;5094558;28;20559;-36
2021/07/21 04:42:25;;;;;;;11.70;10.07;;;17.30;94.70;;;;;;5077742;28;20191;-35
2021/07/21 04:44:51;;;;;;;11.97;10.30;;;17.30;94.60;;;;;;5077687;28;20425;-36
2021/07/21 04:47:18;;;;;;;10.77;9.40;;;17.30;94.40;;;;;;5097778;28;20418;-36
2021/07/21 04:49:44;;;;;;;13.83;10.13;;;17.30;94.30;;;;;;5081520;28;20187;-35
2021/07/21 04:52:14;;;;;;;10.70;9.60;;;17.30;94.40;;;;;;5098073;28;20411;-36
2021/07/21 04:54:39;;;;;;;12.07;10.80;;;17.30;94.50;;;;;;5098045;28;20523;-34
2021/07/21 04:57:05;;;;;;;13.27;10.73;;;17.40;94.60;;;;;;5097070;28;20512;-36
2021/07/21 04:59:31;;;;;;;12.03;9.97;;;17.40;94.50;;;;;;5096217;28;20208;-36
2021/07/21 05:01:58;;;;;;;13.90;10.80;;;17.50;94.50;;;;;;5096583;28;20410;-36
2021/07/21 05:04:24;;;;;;;12.83;9.80;;;17.50;94.40;;;;;;5078112;28;20182;-36
2021/07/21 05:06:49;;;;;;;12.93;10.00;;;17.60;94.30;;;;;;5096010;28;20410;-37
2021/07/21 05:09:15;;;;;;;11.80;9.93;;;17.70;94.10;;;;;;5095970;28;20273;-36
2021/07/21 05:11:41;;;;;;;12.47;10.47;;;17.70;93.90;;;;;;5096296;28;20208;-36
2021/07/21 05:14:07;;;;;;;13.13;11.27;;;17.70;93.90;;;;;;5096287;28;20188;-36
2021/07/21 05:16:33;;;;;;;12.37;10.10;;;17.80;94.00;;;;;;5095176;28;20482;-36
2021/07/21 05:18:59;;;;;;;13.97;10.70;;;17.90;94.00;;;;;;5078055;28;20222;-36
2021/07/21 05:21:27;;;;;;;12.40;10.43;;;18.00;93.90;;;;;;5095205;28;20439;-35
2021/07/21 05:23:52;;;;;;;18.53;11.77;;;18.00;93.70;;;;;;5077758;28;20271;-36
2021/07/21 05:26:18;;;;;;;15.63;11.10;;;18.10;93.90;;;;;;5096954;28;20438;-35
2021/07/21 05:28:44;;;;;;;21.47;12.10;;;18.20;94.20;;;;;;5096522;28;20571;-36
2021/07/21 05:31:09;;;;;;;14.37;10.90;;;18.30;94.50;;;;;;5093390;28;20177;-37
2021/07/21 05:33:36;;;;;;;12.53;10.23;;;18.30;94.30;;;;;;5094593;28;20517;-37
2021/07/21 05:36:04;;;;;;;13.40;10.27;;;18.30;93.90;;;;;;5095995;28;20287;-35
2021/07/21 05:38:32;;;;;;;13.43;10.77;;;18.40;93.90;;;;;;5095224;28;20429;-37
2021/07/21 05:40:58;;;;;;;13.47;9.83;;;18.50;94.00;;;;;;5060080;28;20845;-36
2021/07/21 05:43:25;;;;;;;13.30;10.40;;;18.50;94.00;;;;;;5092681;28;21397;-37
2021/07/21 05:45:51;;;;;;;13.50;11.70;;;18.60;93.80;;;;;;5073941;28;20418;-37
2021/07/21 05:48:16;;;;;;;13.90;11.17;;;18.70;93.50;;;;;;5092393;28;20499;-37
2021/07/21 05:50:42;;;;;;;11.10;9.77;;;18.70;93.20;;;;;;5092702;28;20472;-36
2021/07/21 05:53:08;;;;;;;12.57;11.07;;;18.80;93.30;;;;;;5092561;28;20763;-36
2021/07/21 05:55:34;;;;;;;11.10;9.63;;;18.90;93.00;;;;;;5092355;28;20519;-36
2021/07/21 05:57:59;;;;;;;14.33;11.60;;;19.00;92.90;;;;;;5091848;28;20707;-35
2021/07/21 06:00:25;;;;;;;12.20;10.90;;;19.10;92.50;;;;;;5092821;28;20215;-37
2021/07/21 06:02:51;;;;;;;10.50;9.40;;;19.20;92.40;;;;;;5092472;28;20332;-37
2021/07/21 06:05:17;;;;;;;11.00;9.90;;;19.30;92.70;;;;;;5092850;28;20228;-37
2021/07/21 06:07:42;;;;;;;12.87;10.23;;;19.30;92.50;;;;;;5092352;28;20431;-37
2021/07/21 06:10:08;;;;;;;12.37;11.07;;;19.50;92.00;;;;;;5093876;28;20172;-36
2021/07/21 06:12:34;;;;;;;12.87;8.90;;;19.50;91.60;;;;;;5094219;28;20417;-36
2021/07/21 06:15:01;;;;;;;12.80;11.40;;;19.60;91.90;;;;;;5095401;28;20515;-37
2021/07/21 06:17:27;;;;;;;11.70;10.50;;;19.70;91.70;;;;;;5093085;28;20485;-37
2021/07/21 06:19:52;;;;;;;13.33;9.97;;;19.90;91.60;;;;;;5093759;28;20708;-37
2021/07/21 06:22:18;;;;;;;11.00;9.90;;;20.00;91.30;;;;;;5093153;28;20446;-37
2021/07/21 06:24:47;;;;;;;12.60;11.30;;;20.20;91.20;;;;;;5093094;28;20175;-37
2021/07/21 06:27:13;;;;;;;11.87;10.73;;;20.40;90.60;;;;;;5091551;28;20749;-37
2021/07/21 06:29:39;;;;;;;12.90;11.10;;;20.40;90.70;;;;;;5090043;28;20666;-36
2021/07/21 06:32:05;;;;;;;12.47;11.27;;;20.40;90.40;;;;;;5088464;28;20200;-37
2021/07/21 06:34:31;;;;;;;15.63;11.17;;;20.30;90.50;;;;;;5070540;28;20181;-37
2021/07/21 06:36:57;;;;;;;10.97;9.87;;;20.40;90.70;;;;;;5054737;28;20487;-37
2021/07/21 06:39:22;;;;;;;12.97;11.57;;;20.50;90.60;;;;;;5052784;28;20449;-37
2021/07/21 06:41:48;;;;;;;11.17;9.60;;;20.60;90.20;;;;;;5090036;28;20173;-36
2021/07/21 06:44:14;;;;;;;13.83;12.40;;;20.70;90.30;;;;;;5073696;28;20533;-37
2021/07/21 06:46:40;;;;;;;12.73;10.90;;;20.70;89.80;;;;;;5091983;28;20415;-36
2021/07/21 06:49:05;;;;;;;13.40;12.00;;;20.70;89.30;;;;;;5096122;28;20505;-37
2021/07/21 06:51:31;;;;;;;13.43;12.00;;;20.70;89.30;;;;;;5097975;28;20442;-36
2021/07/21 06:53:57;;;;;;;14.93;10.67;;;20.60;89.20;;;;;;5099316;28;20187;-36
2021/07/21 06:56:22;;;;;;;15.10;12.93;;;20.60;90.30;;;;;;5100806;28;20269;-36
2021/07/21 06:58:50;;;;;;;13.90;11.20;;;20.70;90.20;;;;;;5096166;28;20168;-37
2021/07/21 07:01:16;;;;;;;13.20;11.80;;;20.80;90.20;;;;;;5099274;28;20180;-37
2021/07/21 07:03:42;;;;;;;11.73;10.53;;;21.00;89.20;;;;;;5100548;28;20426;-37
2021/07/21 07:06:09;;;;;;;10.87;9.77;;;21.20;89.60;;;;;;5100708;28;20748;-37
2021/07/21 07:08:35;;;;;;;11.80;10.43;;;21.50;90.20;;;;;;5099633;28;20208;-36
2021/07/21 07:11:01;;;;;;;13.13;11.77;;;21.70;89.60;;;;;;5099068;28;20447;-37
2021/07/21 07:13:26;;;;;;;10.67;9.60;;;22.00;88.40;;;;;;5099813;28;20419;-35
2021/07/21 07:15:55;;;;;;;11.50;10.30;;;22.20;88.00;;;;;;5099043;28;20239;-36
2021/07/21 07:18:20;;;;;;;13.20;11.50;;;22.40;86.90;;;;;;5097642;28;20176;-35
2021/07/21 07:20:47;;;;;;;11.97;10.67;;;22.60;85.70;;;;;;5081081;28;20486;-36
2021/07/21 07:23:13;;;;;;;11.67;10.40;;;22.80;85.80;;;;;;5080789;28;20191;-35
2021/07/21 07:25:40;;;;;;;13.40;10.33;;;23.00;85.00;;;;;;5097631;28;20410;-37
2021/07/21 07:28:06;;;;;;;11.10;10.00;;;23.10;84.70;;;;;;5096084;28;20595;-35
2021/07/21 07:30:32;;;;;;;11.30;9.53;;;23.30;83.60;;;;;;5078792;28;20507;-34
2021/07/21 07:32:58;;;;;;;11.30;9.87;;;23.40;84.70;;;;;;5094007;28;20450;-37
2021/07/21 07:35:24;;;;;;;11.97;10.87;;;23.50;85.10;;;;;;5096492;28;20426;-35
2021/07/21 07:37:50;;;;;;;12.07;10.73;;;23.70;84.90;;;;;;5096357;28;20208;-35
2021/07/21 07:40:15;;;;;;;11.97;10.50;;;23.80;81.60;;;;;;5096023;28;20434;-35
2021/07/21 07:42:41;;;;;;;10.93;9.73;;;24.00;81.30;;;;;;5098193;28;20548;-35
2021/07/21 07:45:07;;;;;;;11.40;9.40;;;24.00;81.60;;;;;;5079978;28;20259;-36
2021/07/21 07:47:33;;;;;;;12.17;10.10;;;24.10;79.60;;;;;;5104322;28;20448;-35
2021/07/21 07:50:00;;;;;;;10.90;9.80;;;24.20;79.00;;;;;;5081256;28;20436;-35
2021/07/21 07:52:26;;;;;;;11.93;10.73;;;24.30;78.10;;;;;;5096854;28;20172;-37
2021/07/21 07:54:51;;;;;;;11.77;10.57;;;24.40;80.60;;;;;;5098849;28;20467;-37
2021/07/21 07:57:17;;;;;;;13.20;11.70;;;24.50;78.10;;;;;;5097738;28;20204;-37
2021/07/21 07:59:43;;;;;;;11.60;10.40;;;24.50;75.60;;;;;;5097025;28;20172;-36
2021/07/21 08:02:08;;;;;;;13.30;11.20;;;24.60;76.00;;;;;;5097548;28;20461;-37
2021/07/21 08:04:34;;;;;;;13.87;10.60;;;24.50;75.00;;;;;;5099938;28;20192;-37
2021/07/21 08:07:00;;;;;;;12.23;10.40;;;24.50;77.80;;;;;;5097565;28;20681;-36
2021/07/21 08:09:25;;;;;;;12.23;10.57;;;24.40;76.00;;;;;;5080096;28;20252;-37
2021/07/21 08:11:57;;;;;;;11.50;10.30;;;24.60;77.50;;;;;;5097405;28;20586;-37
2021/07/21 08:14:23;;;;;;;11.43;10.33;;;24.90;76.40;;;;;;5096936;28;20572;-37
2021/07/21 08:16:50;;;;;;;10.30;9.30;;;25.10;75.90;;;;;;5098533;28;20479;-37
2021/07/21 08:19:16;;;;;;;13.70;11.67;;;25.20;75.80;;;;;;5079581;28;20316;-36
2021/07/21 08:21:42;;;;;;;12.60;11.30;;;25.50;73.10;;;;;;5098338;28;20406;-37
2021/07/21 08:24:08;;;;;;;12.00;10.90;;;25.40;72.30;;;;;;5099434;28;20437;-37
2021/07/21 08:26:34;;;;;;;12.50;10.87;;;25.30;73.60;;;;;;5097139;28;20414;-37
2021/07/21 08:29:00;;;;;;;11.70;10.60;;;25.30;75.10;;;;;;5097565;28;20180;-37
2021/07/21 08:31:26;;;;;;;12.60;11.30;;;25.50;73.90;;;;;;5099942;28;20184;-36
2021/07/21 08:33:51;;;;;;;11.80;10.60;;;25.60;72.20;;;;;;5097478;28;20434;-39
2021/07/21 08:36:17;;;;;;;12.73;11.43;;;25.60;70.70;;;;;;5079315;28;20211;-37
2021/07/21 08:38:43;;;;;;;11.77;10.53;;;25.60;71.20;;;;;;5098777;28;20188;-38
2021/07/21 08:41:09;;;;;;;11.17;10.07;;;25.70;72.10;;;;;;5096678;28;20165;-37
2021/07/21 08:43:38;;;;;;;12.10;10.90;;;25.90;71.60;;;;;;5098475;28;20470;-38
2021/07/21 08:46:04;;;;;;;14.33;10.97;;;26.20;72.10;;;;;;5081532;28;20421;-36
2021/07/21 08:48:30;;;;;;;12.30;11.20;;;26.50;70.10;;;;;;5080138;28;20767;-37
2021/07/21 08:50:56;;;;;;;12.63;11.40;;;26.90;71.90;;;;;;5097253;28;20414;-36
2021/07/21 08:53:21;;;;;;;12.53;10.30;;;27.20;70.40;;;;;;5098550;28;20706;-36
2021/07/21 08:55:49;;;;;;;11.23;10.07;;;27.50;69.00;;;;;;5095543;28;20203;-37
2021/07/21 08:58:18;;;;;;;12.60;11.30;;;27.80;67.60;;;;;;5094000;28;20420;-37
2021/07/21 09:00:43;;;;;;;11.37;10.37;;;28.10;67.00;;;;;;5094873;28;20415;-35
2021/07/21 09:03:09;;;;;;;11.83;10.63;;;28.30;67.00;;;;;;5094883;28;20430;-37
2021/07/21 09:05:35;;;;;;;11.33;10.03;;;28.50;65.20;;;;;;5094400;28;20173;-37
2021/07/21 09:08:01;;;;;;;11.77;10.67;;;28.60;65.70;;;;;;5093836;28;20176;-37
2021/07/21 09:10:27;;;;;;;12.83;11.63;;;28.80;63.30;;;;;;5093600;28;20461;-36
2021/07/21 09:12:52;;;;;;;11.20;10.20;;;29.00;61.50;;;;;;5095459;28;20465;-36
2021/07/21 09:15:22;;;;;;;12.43;11.13;;;29.20;60.50;;;;;;5094398;28;20176;-37
2021/07/21 09:18:11;;;;;;;11.93;9.97;;;29.30;58.80;;;;;;5056282;28;20635;-37
2021/07/21 09:20:41;;;;;;;11.70;10.60;;;29.40;58.00;;;;;;5075893;28;20400;-37
2021/07/21 09:23:08;;;;;;;12.10;10.90;;;29.50;56.10;;;;;;5073243;28;20430;-37
2021/07/21 09:25:35;;;;;;;12.37;11.17;;;29.30;55.40;;;;;;5074090;28;20404;-36
2021/07/21 09:28:07;;;;;;;13.03;11.17;;;28.60;56.20;;;;;;5073252;28;20714;-37
2021/07/21 09:30:45;;;;;;;12.33;11.23;;;28.30;57.80;;;;;;5073008;28;20422;-38
2021/07/21 09:33:12;;;;;;;12.60;11.23;;;28.50;58.80;;;;;;5075695;28;20419;-37
2021/07/21 09:36:03;;;;;;;11.57;10.57;;;28.70;55.90;;;;;;5075455;28;20809;-37
2021/07/21 09:38:30;;;;;;;11.20;10.10;;;28.80;59.60;;;;;;5070721;28;20466;-37
2021/07/21 09:41:04;;;;;;;13.23;9.83;;;29.30;59.40;;;;;;5076439;28;20446;-38
2021/07/21 09:43:32;;;;;;;16.53;11.70;;;29.80;57.80;;;;;;5074900;28;20438;-37
2021/07/21 09:46:05;;;;;;;10.33;9.20;;;30.10;53.80;;;;;;5075214;28;20403;-37
2021/07/21 09:48:49;;;;;;;11.97;10.87;;;30.00;54.60;;;;;;5075019;28;20412;-36
2021/07/21 09:51:27;;;;;;;12.50;10.40;;;30.30;56.40;;;;;;5074462;28;20724;-36
2021/07/21 09:53:53;;;;;;;11.70;10.60;;;30.60;55.50;;;;;;5074930;28;20446;-38
2021/07/21 09:56:31;;;;;;;13.30;12.00;;;30.90;55.90;;;;;;5076288;28;20434;-37
2021/07/21 09:59:26;;;;;;;14.20;12.90;;;31.00;53.20;;;;;;5074197;28;20419;-36
2021/07/21 10:01:52;;;;;;;14.07;12.67;;;30.70;54.70;;;;;;5073807;28;20434;-39
2021/07/21 10:04:33;;;;;;;12.43;11.33;;;30.70;54.60;;;;;;5076354;28;20406;-38
2021/07/21 10:06:59;;;;;;;12.37;10.80;;;30.90;54.80;;;;;;5072422;28;20446;-39
2021/07/21 10:09:25;;;;;;;12.27;11.17;;;31.20;54.30;;;;;;5074440;28;20433;-37
2021/07/21 10:11:53;;;;;;;12.33;11.13;;;31.40;53.40;;;;;;5072391;28;20852;-39
2021/07/21 10:14:19;;;;;;;12.80;11.60;;;31.90;52.50;;;;;;5055904;28;20512;-39
2021/07/21 10:16:45;;;;;;;13.90;11.90;;;32.20;51.90;;;;;;5065336;28;20849;-39
2021/07/21 10:19:28;;;;;;;12.90;11.63;;;32.40;51.80;;;;;;5073824;28;20183;-39
2021/07/21 10:21:57;;;;;;;12.83;11.63;;;32.40;50.90;;;;;;5074543;28;20484;-40
2021/07/21 10:24:25;;;;;;;13.30;12.00;;;32.20;50.90;;;;;;5076566;28;20423;-38
2021/07/21 10:26:52;;;;;;;12.90;11.70;;;32.30;49.80;;;;;;5077617;28;20398;-39
2021/07/21 10:29:18;;;;;;;12.77;11.67;;;32.20;51.70;;;;;;5076138;28;20681;-40
2021/07/21 10:31:45;;;;;;;12.00;10.87;;;32.50;51.40;;;;;;5078591;28;20513;-39
2021/07/21 10:34:11;;;;;;;13.73;12.33;;;33.00;51.10;;;;;;5076620;28;20427;-38
2021/07/21 10:36:38;;;;;;;12.70;11.70;;;33.40;49.30;;;;;;5078650;28;20869;-38
2021/07/21 10:39:17;;;;;;;11.83;10.80;;;33.70;48.80;;;;;;5079806;28;20462;-38
2021/07/21 10:41:45;;;;;;;12.73;11.63;;;33.90;47.60;;;;;;5061167;28;20687;-40
2021/07/21 10:44:13;;;;;;;12.23;11.03;;;34.10;46.30;;;;;;5076858;28;20925;-39
2021/07/21 10:46:44;;;;;;;12.80;11.50;;;34.40;47.00;;;;;;5077479;28;20846;-40
2021/07/21 10:49:14;;;;;;;13.60;12.40;;;34.30;46.90;;;;;;5081123;28;20646;-37
2021/07/21 11:00:42;;;;;;;13.10;11.83;;;34.50;45.60;;;;;;5097764;28;20449;-41
2021/07/21 11:03:23;;;;;;;12.73;11.63;;;34.80;45.80;;;;;;5080151;28;20894;-38
2021/07/21 11:06:04;;;;;;;12.80;11.60;;;35.10;45.40;;;;;;5081071;28;20389;-38
2021/07/21 11:08:31;;;;;;;12.80;11.70;;;35.30;46.40;;;;;;5097236;28;20467;-40
2021/07/21 11:11:11;;;;;;;13.00;11.90;;;35.30;44.80;;;;;;5096654;28;20392;-39
2021/07/21 11:13:38;;;;;;;13.53;12.23;;;35.30;43.30;;;;;;5078057;28;20430;-38
2021/07/21 11:16:05;;;;;;;12.80;11.67;;;35.30;43.20;;;;;;5095799;28;20530;-38
2021/07/21 11:18:41;;;;;;;12.80;11.60;;;35.20;44.30;;;;;;5097911;28;20445;-39
2021/07/21 11:21:16;;;;;;;13.27;12.03;;;35.20;44.50;;;;;;5095337;28;20381;-37
2021/07/21 11:23:43;;;;;;;12.70;11.60;;;35.20;43.80;;;;;;5095566;28;20454;-37
2021/07/21 11:29:33;;;;;;;13.20;12.00;;;35.20;45.00;;;;;;5098376;28;20548;-39
2021/07/21 11:32:00;;;;;;;13.03;11.90;;;35.20;43.40;;;;;;5098838;28;20398;-38
2021/07/21 11:34:29;;;;;;;14.03;12.03;;;34.70;42.10;;;;;;5080253;28;20438;-38
2021/07/21 11:36:56;;;;;;;14.23;12.90;;;34.20;42.70;;;;;;5098252;28;20459;-37
2021/07/21 11:39:45;;;;;;;13.57;12.37;;;34.10;43.60;;;;;;5096580;28;20423;-38
2021/07/21 11:42:38;;;;;;;14.07;12.77;;;34.20;44.70;;;;;;5097894;28;20460;-38
2021/07/21 11:45:11;;;;;;;14.37;13.10;;;34.40;45.00;;;;;;5096154;28;20410;-38
2021/07/21 11:48:06;;;;;;;15.20;13.80;;;34.70;42.30;;;;;;5095908;28;20425;-38
2021/07/21 11:50:33;;;;;;;14.93;13.53;;;34.50;41.90;;;;;;5077871;28;20402;-37
2021/07/21 11:53:02;;;;;;;14.93;13.43;;;34.40;42.10;;;;;;5095752;28;20429;-37
2021/07/21 11:55:30;;;;;;;14.23;12.93;;;34.60;45.00;;;;;;5077528;28;20425;-40
2021/07/21 11:57:56;;;;;;;13.73;12.43;;;35.00;44.40;;;;;;5097779;28;20469;-40
2021/07/21 12:00:24;;;;;;;14.67;13.47;;;35.60;43.80;;;;;;5096582;28;20389;-38
2021/07/21 12:03:00;;;;;;;15.70;14.17;;;36.00;42.60;;;;;;5096414;28;20405;-38
2021/07/21 12:05:27;;;;;;;14.70;13.50;;;34.30;41.60;;;;;;5078305;28;20818;-39
2021/07/21 12:07:53;;;;;;;15.30;13.90;;;34.70;42.30;;;;;;5094004;28;20416;-39
2021/07/21 12:10:19;;;;;;;14.57;13.27;;;34.90;41.30;;;;;;5093727;28;20410;-39
2021/07/21 12:12:45;;;;;;;13.77;12.20;;;35.00;42.10;;;;;;5092091;28;20211;-38
2021/07/21 12:15:15;;;;;;;16.13;14.63;;;35.40;44.20;;;;;;5093692;28;20770;-39
2021/07/21 12:17:41;;;;;;;12.83;11.77;;;35.70;44.00;;;;;;5094131;28;20729;-39
2021/07/21 12:20:13;;;;;;;13.73;12.37;;;36.00;43.30;;;;;;5094697;28;20488;-39
2021/07/21 12:22:41;;;;;;;14.73;13.47;;;36.20;41.00;;;;;;5094022;28;20432;-39
2021/07/21 12:25:15;;;;;;;14.80;13.43;;;36.30;43.00;;;;;;5096912;28;20384;-39
2021/07/21 12:27:46;;;;;;;13.73;12.53;;;36.30;41.50;;;;;;5078896;28;20397;-46
2021/07/21 12:30:19;;;;;;;14.30;13.00;;;35.90;41.70;;;;;;5096307;28;20409;-39
2021/07/21 12:32:47;;;;;;;12.90;11.80;;;36.10;42.70;;;;;;5097139;28;20429;-39
2021/07/21 12:35:14;;;;;;;14.37;13.17;;;36.50;42.10;;;;;;5096335;28;20385;-39
2021/07/21 12:37:42;;;;;;;14.97;13.67;;;36.90;41.60;;;;;;5096975;28;20477;-39
2021/07/21 12:40:11;;;;;;;14.50;13.20;;;37.10;40.20;;;;;;5095470;28;20472;-39
2021/07/21 12:42:38;;;;;;;13.77;12.67;;;36.20;39.40;;;;;;5095534;28;20663;-39
2021/07/21 12:45:06;;;;;;;14.23;13.00;;;36.60;41.10;;;;;;5096480;28;20675;-40
2021/07/21 12:47:35;;;;;;;15.17;13.70;;;36.90;41.10;;;;;;5096308;28;20378;-39
2021/07/21 12:50:07;;;;;;;12.93;11.83;;;36.70;40.30;;;;;;5096228;28;20664;-39
2021/07/21 12:52:43;;;;;;;13.97;12.87;;;36.60;40.40;;;;;;5060480;28;20710;-39
2021/07/21 12:55:11;;;;;;;14.33;13.13;;;36.30;40.80;;;;;;5094398;28;20463;-39
2021/07/21 12:57:42;;;;;;;13.60;12.20;;;35.70;40.50;;;;;;5094986;28;20894;-39